sensor_id;sensor_type;location;lat;lon;timestamp;temperature;humidity
20773;DHT22;10546;50.674;4.616;2024-03-22T07:02:58;11.70;99.90
20773;DHT22;10546;50.674;4.616;2024-03-22T07:05:27;11.70;99.90
20773;DHT22;10546;50.674;4.616;2024-03-22T07:07:53;11.70;99.90
20773;DHT22;10546;50.674;4.616;2024-03-22T07:10:21;11.70;99.90
20773;DHT22;10546;50.674;4.616;2024-03-22T07:12:48;11.60;99.90
20773;DHT22;10546;50.674;4.616;2024-03-22T07:15:14;11.60;99.90
20773;DHT22;10546;50.674;4.616;2024-03-22T07:17:39;11.60;99.90
20773;DHT22;10546;50.674;4.616;2024-03-22T07:20:06;11.60;99.90
20773;DHT22;10546;50.674;4.616;2024-03-22T07:22:31;11.50;99.90
20773;DHT22;10546;50.674;4.616;2024-03-22T07:24:57;11.50;99.90
20773;DHT22;10546;50.674;4.616;2024-03-22T07:27:23;11.60;99.90
20773;DHT22;10546;50.674;4.616;2024-03-22T07:29:48;11.70;99.90
20773;DHT22;10546;50.674;4.616;2024-03-22T07:32:14;11.70;99.90
20773;DHT22;10546;50.674;4.616;2024-03-22T07:34:40;11.60;99.90
20773;DHT22;10546;50.674;4.616;2024-03-22T07:37:06;11.60;99.90
20773;DHT22;10546;50.674;4.616;2024-03-22T07:39:31;11.60;99.90
20773;DHT22;10546;50.674;4.616;2024-03-22T07:41:57;11.60;99.90
20773;DHT22;10546;50.674;4.616;2024-03-22T07:44:23;11.70;99.90
20773;DHT22;10546;50.674;4.616;2024-03-22T07:46:54;11.80;99.90
20773;DHT22;10546;50.674;4.616;2024-03-22T07:49:20;11.70;99.90
20773;DHT22;10546;50.674;4.616;2024-03-22T07:51:46;11.60;99.90
20773;DHT22;10546;50.674;4.616;2024-03-22T07:54:11;11.50;99.90
20773;DHT22;10546;50.674;4.616;2024-03-22T07:56:37;11.40;99.90
20773;DHT22;10546;50.674;4.616;2024-03-22T07:59:02;11.30;99.90
20773;DHT22;10546;50.674;4.616;2024-03-22T08:01:28;11.20;99.90
20773;DHT22;10546;50.674;4.616;2024-03-22T08:03:54;11.30;99.90
20773;DHT22;10546;50.674;4.616;2024-03-22T08:06:20;11.20;99.90
20773;DHT22;10546;50.674;4.616;2024-03-22T08:08:45;11.20;99.90
20773;DHT22;10546;50.674;4.616;2024-03-22T08:11:11;11.20;99.90
20773;DHT22;10546;50.674;4.616;2024-03-22T08:13:37;11.20;99.90
20773;DHT22;10546;50.674;4.616;2024-03-22T08:16:03;11.20;99.90
20773;DHT22;10546;50.674;4.616;2024-03-22T08:18:29;11.30;99.90
20773;DHT22;10546;50.674;4.616;2024-03-22T08:20:54;11.30;99.90
20773;DHT22;10546;50.674;4.616;2024-03-22T08:23:20;11.40;99.90
20773;DHT22;10546;50.674;4.616;2024-03-22T08:25:48;11.30;99.90
20773;DHT22;10546;50.674;4.616;2024-03-22T08:28:14;11.20;99.90
20773;DHT22;10546;50.674;4.616;2024-03-22T08:30:39;11.20;99.90
20773;DHT22;10546;50.674;4.616;2024-03-22T08:33:05;11.20;99.90
20773;DHT22;10546;50.674;4.616;2024-03-22T08:35:31;11.20;99.90
20773;DHT22;10546;50.674;4.616;2024-03-22T08:37:57;11.20;99.90
20773;DHT22;10546;50.674;4.616;2024-03-22T08:40:24;11.10;99.90
20773;DHT22;10546;50.674;4.616;2024-03-22T08:42:49;11.10;99.90
20773;DHT22;10546;50.674;4.616;2024-03-22T08:45:15;11.30;99.90
20773;DHT22;10546;50.674;4.616;2024-03-22T08:47:42;11.20;99.90
20773;DHT22;10546;50.674;4.616;2024-03-22T08:50:08;11.20;99.90
20773;DHT22;10546;50.674;4.616;2024-03-22T08:52:34;11.50;99.90
20773;DHT22;10546;50.674;4.616;2024-03-22T08:55:01;11.50;99.90
20773;DHT22;10546;50.674;4.616;2024-03-22T08:57:27;11.50;99.90
20773;DHT22;10546;50.674;4.616;2024-03-22T08:59:52;11.60;99.90
20773;DHT22;10546;50.674;4.616;2024-03-22T09:02:18;11.60;99.90
20773;DHT22;10546;50.674;4.616;2024-03-22T09:04:44;11.60;99.90
20773;DHT22;10546;50.674;4.616;2024-03-22T09:07:09;11.90;99.90
20773;DHT22;10546;50.674;4.616;2024-03-22T09:09:35;11.90;99.90
20773;DHT22;10546;50.674;4.616;2024-03-22T09:12:01;11.90;99.90
20773;DHT22;10546;50.674;4.616;2024-03-22T09:14:26;11.80;99.90
20773;DHT22;10546;50.674;4.616;2024-03-22T09:16:52;11.90;99.90
20773;DHT22;10546;50.674;4.616;2024-03-22T09:19:18;11.90;99.90
20773;DHT22;10546;50.674;4.616;2024-03-22T09:21:43;11.90;99.90
20773;DHT22;10546;50.674;4.616;2024-03-22T09:24:09;12.00;99.90
20773;DHT22;10546;50.674;4.616;2024-03-22T09:26:35;11.90;99.90
20773;DHT22;10546;50.674;4.616;2024-03-22T09:29:00;12.10;99.90
20773;DHT22;10546;50.674;4.616;2024-03-22T09:31:26;12.10;99.90
20773;DHT22;10546;50.674;4.616;2024-03-22T09:33:52;12.00;99.90
20773;DHT22;10546;50.674;4.616;2024-03-22T09:36:18;12.20;99.90
20773;DHT22;10546;50.674;4.616;2024-03-22T09:38:44;12.40;99.90
20773;DHT22;10546;50.674;4.616;2024-03-22T09:41:09;12.40;99.90
20773;DHT22;10546;50.674;4.616;2024-03-22T09:43:37;12.60;99.90
20773;DHT22;10546;50.674;4.616;2024-03-22T09:46:04;12.70;99.90
20773;DHT22;10546;50.674;4.616;2024-03-22T09:48:31;12.80;99.90
20773;DHT22;10546;50.674;4.616;2024-03-22T09:50:58;12.80;99.90
20773;DHT22;10546;50.674;4.616;2024-03-22T09:53:27;12.80;99.90
20773;DHT22;10546;50.674;4.616;2024-03-22T09:55:56;13.10;99.90
20773;DHT22;10546;50.674;4.616;2024-03-22T09:58:24;12.90;99.90
20773;DHT22;10546;50.674;4.616;2024-03-22T10:00:50;13.10;99.90
20773;DHT22;10546;50.674;4.616;2024-03-22T10:03:16;12.90;99.90
20773;DHT22;10546;50.674;4.616;2024-03-22T10:05:42;12.80;99.90
20773;DHT22;10546;50.674;4.616;2024-03-22T10:08:07;12.70;99.90
20773;DHT22;10546;50.674;4.616;2024-03-22T10:10:34;12.90;99.90
20773;DHT22;10546;50.674;4.616;2024-03-22T10:13:05;12.90;99.90
20773;DHT22;10546;50.674;4.616;2024-03-22T10:15:31;13.20;99.90
20773;DHT22;10546;50.674;4.616;2024-03-22T10:17:57;13.30;99.90
20773;DHT22;10546;50.674;4.616;2024-03-22T10:20:23;13.40;99.90
20773;DHT22;10546;50.674;4.616;2024-03-22T10:22:55;13.20;99.90
20773;DHT22;10546;50.674;4.616;2024-03-22T10:25:22;13.30;99.90
20773;DHT22;10546;50.674;4.616;2024-03-22T10:27:48;13.40;99.90
20773;DHT22;10546;50.674;4.616;2024-03-22T10:30:16;13.40;99.90
20773;DHT22;10546;50.674;4.616;2024-03-22T10:32:44;13.60;99.90
20773;DHT22;10546;50.674;4.616;2024-03-22T10:35:12;13.50;99.90
20773;DHT22;10546;50.674;4.616;2024-03-22T10:37:41;13.50;99.90
20773;DHT22;10546;50.674;4.616;2024-03-22T10:40:08;13.30;99.90
20773;DHT22;10546;50.674;4.616;2024-03-22T10:42:41;13.30;99.90
20773;DHT22;10546;50.674;4.616;2024-03-22T10:45:09;13.40;99.90
20773;DHT22;10546;50.674;4.616;2024-03-22T10:47:37;13.40;99.90
20773;DHT22;10546;50.674;4.616;2024-03-22T10:50:10;13.30;99.90
20773;DHT22;10546;50.674;4.616;2024-03-22T10:55:04;13.40;99.90
20773;DHT22;10546;50.674;4.616;2024-03-22T10:57:36;13.50;99.90
20773;DHT22;10546;50.674;4.616;2024-03-22T11:00:12;13.70;99.90
20773;DHT22;10546;50.674;4.616;2024-03-22T11:02:38;13.50;99.90
20773;DHT22;10546;50.674;4.616;2024-03-22T11:05:04;13.30;99.90
20773;DHT22;10546;50.674;4.616;2024-03-22T11:07:31;13.40;99.90
20773;DHT22;10546;50.674;4.616;2024-03-22T11:09:58;13.50;99.90
20773;DHT22;10546;50.674;4.616;2024-03-22T11:12:28;13.80;99.90
20773;DHT22;10546;50.674;4.616;2024-03-22T11:14:56;13.80;99.90
20773;DHT22;10546;50.674;4.616;2024-03-22T11:17:21;13.90;99.90
20773;DHT22;10546;50.674;4.616;2024-03-22T11:19:51;13.90;99.90
20773;DHT22;10546;50.674;4.616;2024-03-22T11:22:17;13.90;99.90
20773;DHT22;10546;50.674;4.616;2024-03-22T11:24:43;14.10;99.90
20773;DHT22;10546;50.674;4.616;2024-03-22T11:27:11;14.10;99.90
20773;DHT22;10546;50.674;4.616;2024-03-22T11:29:48;14.00;99.90
20773;DHT22;10546;50.674;4.616;2024-03-22T11:32:18;14.10;99.90
20773;DHT22;10546;50.674;4.616;2024-03-22T11:34:44;14.30;99.90
20773;DHT22;10546;50.674;4.616;2024-03-22T11:37:15;14.60;99.90
20773;DHT22;10546;50.674;4.616;2024-03-22T11:39:42;14.60;99.90
20773;DHT22;10546;50.674;4.616;2024-03-22T11:42:09;14.70;99.90
20773;DHT22;10546;50.674;4.616;2024-03-22T11:44:38;14.50;99.90
20773;DHT22;10546;50.674;4.616;2024-03-22T11:47:06;14.50;99.90
20773;DHT22;10546;50.674;4.616;2024-03-22T11:49:33;14.50;99.90
20773;DHT22;10546;50.674;4.616;2024-03-22T11:52:00;14.70;99.90
20773;DHT22;10546;50.674;4.616;2024-03-22T11:54:28;15.00;99.90
20773;DHT22;10546;50.674;4.616;2024-03-22T11:56:57;14.90;99.90
20773;DHT22;10546;50.674;4.616;2024-03-22T11:59:23;15.10;99.90
20773;DHT22;10546;50.674;4.616;2024-03-22T12:01:48;15.10;99.90
20773;DHT22;10546;50.674;4.616;2024-03-22T12:04:14;15.00;99.90
20773;DHT22;10546;50.674;4.616;2024-03-22T12:06:44;14.80;99.90
20773;DHT22;10546;50.674;4.616;2024-03-22T12:09:13;14.70;99.90
20773;DHT22;10546;50.674;4.616;2024-03-22T12:11:39;14.70;99.90
20773;DHT22;10546;50.674;4.616;2024-03-22T12:14:05;14.70;99.90
20773;DHT22;10546;50.674;4.616;2024-03-22T12:16:31;14.90;99.90
20773;DHT22;10546;50.674;4.616;2024-03-22T12:18:57;14.90;99.90
20773;DHT22;10546;50.674;4.616;2024-03-22T12:21:23;15.00;99.90
20773;DHT22;10546;50.674;4.616;2024-03-22T12:23:49;15.10;99.90
20773;DHT22;10546;50.674;4.616;2024-03-22T12:26:15;15.00;99.90
20773;DHT22;10546;50.674;4.616;2024-03-22T12:28:40;15.00;99.90
20773;DHT22;10546;50.674;4.616;2024-03-22T12:31:08;15.10;99.90
20773;DHT22;10546;50.674;4.616;2024-03-22T12:33:33;14.90;99.90
20773;DHT22;10546;50.674;4.616;2024-03-22T12:35:59;14.90;99.90
20773;DHT22;10546;50.674;4.616;2024-03-22T12:38:25;15.00;99.90
20773;DHT22;10546;50.674;4.616;2024-03-22T12:40:51;14.80;99.90
20773;DHT22;10546;50.674;4.616;2024-03-22T12:43:16;14.70;99.90
20773;DHT22;10546;50.674;4.616;2024-03-22T12:45:42;14.70;99.90
20773;DHT22;10546;50.674;4.616;2024-03-22T12:48:08;14.90;99.90
20773;DHT22;10546;50.674;4.616;2024-03-22T12:50:34;14.80;99.90
20773;DHT22;10546;50.674;4.616;2024-03-22T12:53:00;14.80;99.90
20773;DHT22;10546;50.674;4.616;2024-03-22T12:55:26;14.90;99.90
20773;DHT22;10546;50.674;4.616;2024-03-22T12:57:54;14.80;99.90
20773;DHT22;10546;50.674;4.616;2024-03-22T13:00:19;14.80;99.90
20773;DHT22;10546;50.674;4.616;2024-03-22T13:02:45;14.90;99.90
20773;DHT22;10546;50.674;4.616;2024-03-22T13:05:12;14.80;99.90
20773;DHT22;10546;50.674;4.616;2024-03-22T13:07:37;14.90;99.90
20773;DHT22;10546;50.674;4.616;2024-03-22T13:13:31;14.90;99.90
20773;DHT22;10546;50.674;4.616;2024-03-22T13:16:24;14.80;99.90
20773;DHT22;10546;50.674;4.616;2024-03-22T13:18:53;14.60;99.90
20773;DHT22;10546;50.674;4.616;2024-03-22T13:21:20;14.60;99.90
20773;DHT22;10546;50.674;4.616;2024-03-22T13:24:04;14.60;99.90
20773;DHT22;10546;50.674;4.616;2024-03-22T13:26:38;14.70;99.90
20773;DHT22;10546;50.674;4.616;2024-03-22T13:29:07;14.50;99.90
20773;DHT22;10546;50.674;4.616;2024-03-22T13:31:34;14.40;99.90
20773;DHT22;10546;50.674;4.616;2024-03-22T13:34:11;14.30;99.90
20773;DHT22;10546;50.674;4.616;2024-03-22T13:37:01;14.30;99.90
20773;DHT22;10546;50.674;4.616;2024-03-22T13:39:51;14.30;99.90
20773;DHT22;10546;50.674;4.616;2024-03-22T13:42:21;14.20;99.90
20773;DHT22;10546;50.674;4.616;2024-03-22T13:44:48;14.10;99.90
20773;DHT22;10546;50.674;4.616;2024-03-22T13:47:18;14.20;99.90
20773;DHT22;10546;50.674;4.616;2024-03-22T13:49:47;14.10;99.90
20773;DHT22;10546;50.674;4.616;2024-03-22T13:52:17;14.20;99.90
20773;DHT22;10546;50.674;4.616;2024-03-22T13:55:08;14.20;99.90
20773;DHT22;10546;50.674;4.616;2024-03-22T13:58:17;14.30;99.90
20773;DHT22;10546;50.674;4.616;2024-03-22T14:01:06;14.10;99.90
20773;DHT22;10546;50.674;4.616;2024-03-22T14:04:10;14.10;99.90
20773;DHT22;10546;50.674;4.616;2024-03-22T14:07:07;14.00;99.90
20773;DHT22;10546;50.674;4.616;2024-03-22T14:10:06;13.80;99.90
20773;DHT22;10546;50.674;4.616;2024-03-22T14:12:38;13.70;99.90
20773;DHT22;10546;50.674;4.616;2024-03-22T14:15:41;14.00;99.90
20773;DHT22;10546;50.674;4.616;2024-03-22T14:18:18;13.80;99.90
20773;DHT22;10546;50.674;4.616;2024-03-22T14:20:45;13.80;99.90
20773;DHT22;10546;50.674;4.616;2024-03-22T14:23:14;13.60;99.90
20773;DHT22;10546;50.674;4.616;2024-03-22T14:25:41;14.00;99.90
20773;DHT22;10546;50.674;4.616;2024-03-22T14:28:20;14.10;99.90
20773;DHT22;10546;50.674;4.616;2024-03-22T14:31:12;13.90;99.90
20773;DHT22;10546;50.674;4.616;2024-03-22T14:33:40;13.80;99.90
20773;DHT22;10546;50.674;4.616;2024-03-22T14:36:22;13.60;99.90
20773;DHT22;10546;50.674;4.616;2024-03-22T14:39:06;13.50;99.90
20773;DHT22;10546;50.674;4.616;2024-03-22T14:41:39;13.30;99.90
20773;DHT22;10546;50.674;4.616;2024-03-22T14:44:06;13.40;99.90
20773;DHT22;10546;50.674;4.616;2024-03-22T14:46:35;13.30;99.90
20773;DHT22;10546;50.674;4.616;2024-03-22T14:49:07;13.40;99.90
20773;DHT22;10546;50.674;4.616;2024-03-22T14:51:37;13.30;99.90
20773;DHT22;10546;50.674;4.616;2024-03-22T14:54:16;13.40;99.90
20773;DHT22;10546;50.674;4.616;2024-03-22T14:56:43;13.20;99.90
20773;DHT22;10546;50.674;4.616;2024-03-22T14:59:12;13.20;99.90
20773;DHT22;10546;50.674;4.616;2024-03-22T15:01:39;13.30;99.90
20773;DHT22;10546;50.674;4.616;2024-03-22T15:04:34;13.40;99.90
20773;DHT22;10546;50.674;4.616;2024-03-22T15:07:15;13.30;99.90
20773;DHT22;10546;50.674;4.616;2024-03-22T15:10:04;13.30;99.90
20773;DHT22;10546;50.674;4.616;2024-03-22T15:12:41;13.20;99.90
20773;DHT22;10546;50.674;4.616;2024-03-22T15:15:07;12.90;99.90
20773;DHT22;10546;50.674;4.616;2024-03-22T15:17:42;12.90;99.90
20773;DHT22;10546;50.674;4.616;2024-03-22T15:20:08;13.10;99.90
20773;DHT22;10546;50.674;4.616;2024-03-22T15:22:34;13.00;99.90
20773;DHT22;10546;50.674;4.616;2024-03-22T15:25:02;13.00;99.90
20773;DHT22;10546;50.674;4.616;2024-03-22T15:27:27;12.90;99.90
20773;DHT22;10546;50.674;4.616;2024-03-22T15:29:53;12.60;99.90
20773;DHT22;10546;50.674;4.616;2024-03-22T15:32:19;12.70;99.90
20773;DHT22;10546;50.674;4.616;2024-03-22T15:34:46;12.70;99.90
20773;DHT22;10546;50.674;4.616;2024-03-22T15:37:12;12.80;99.90
20773;DHT22;10546;50.674;4.616;2024-03-22T15:39:37;12.80;99.90
20773;DHT22;10546;50.674;4.616;2024-03-22T15:42:03;12.60;99.90
20773;DHT22;10546;50.674;4.616;2024-03-22T15:44:29;12.50;99.90
20773;DHT22;10546;50.674;4.616;2024-03-22T15:46:55;12.50;99.90
20773;DHT22;10546;50.674;4.616;2024-03-22T15:49:25;12.30;99.90
20773;DHT22;10546;50.674;4.616;2024-03-22T15:51:51;12.40;99.90
20773;DHT22;10546;50.674;4.616;2024-03-22T15:54:17;12.50;99.90
20773;DHT22;10546;50.674;4.616;2024-03-22T15:56:42;12.50;99.90
20773;DHT22;10546;50.674;4.616;2024-03-22T15:59:09;12.50;99.90
20773;DHT22;10546;50.674;4.616;2024-03-22T16:01:34;12.40;99.90
20773;DHT22;10546;50.674;4.616;2024-03-22T16:04:00;12.50;99.90
20773;DHT22;10546;50.674;4.616;2024-03-22T16:06:25;12.50;99.90
20773;DHT22;10546;50.674;4.616;2024-03-22T16:08:51;12.40;99.90
20773;DHT22;10546;50.674;4.616;2024-03-22T16:11:17;12.30;99.90
20773;DHT22;10546;50.674;4.616;2024-03-22T16:13:42;12.30;99.90
20773;DHT22;10546;50.674;4.616;2024-03-22T16:16:08;12.30;99.90
20773;DHT22;10546;50.674;4.616;2024-03-22T16:18:34;12.30;99.90
20773;DHT22;10546;50.674;4.616;2024-03-22T16:21:00;12.20;99.90
20773;DHT22;10546;50.674;4.616;2024-03-22T16:23:26;12.00;99.90
20773;DHT22;10546;50.674;4.616;2024-03-22T16:25:52;12.10;99.90
20773;DHT22;10546;50.674;4.616;2024-03-22T16:28:17;12.00;99.90
20773;DHT22;10546;50.674;4.616;2024-03-22T16:30:43;11.80;99.90
20773;DHT22;10546;50.674;4.616;2024-03-22T16:33:09;11.90;99.90
20773;DHT22;10546;50.674;4.616;2024-03-22T16:35:34;11.90;99.90
20773;DHT22;10546;50.674;4.616;2024-03-22T16:38:00;11.80;99.90
20773;DHT22;10546;50.674;4.616;2024-03-22T16:40:26;11.90;99.90
20773;DHT22;10546;50.674;4.616;2024-03-22T16:42:51;11.70;99.90
20773;DHT22;10546;50.674;4.616;2024-03-22T16:45:18;11.30;99.90
20773;DHT22;10546;50.674;4.616;2024-03-22T16:47:44;11.50;99.90
20773;DHT22;10546;50.674;4.616;2024-03-22T16:50:10;11.50;99.90
20773;DHT22;10546;50.674;4.616;2024-03-22T16:52:39;11.50;99.90
20773;DHT22;10546;50.674;4.616;2024-03-22T16:55:06;11.30;99.90
20773;DHT22;10546;50.674;4.616;2024-03-22T16:57:35;11.40;99.90
20773;DHT22;10546;50.674;4.616;2024-03-22T17:00:03;11.40;99.90
20773;DHT22;10546;50.674;4.616;2024-03-22T17:02:29;11.30;99.90
20773;DHT22;10546;50.674;4.616;2024-03-22T17:04:54;11.20;99.90
20773;DHT22;10546;50.674;4.616;2024-03-22T17:07:21;11.20;99.90
20773;DHT22;10546;50.674;4.616;2024-03-22T17:09:51;11.20;99.90
20773;DHT22;10546;50.674;4.616;2024-03-22T17:12:28;11.10;99.90
20773;DHT22;10546;50.674;4.616;2024-03-22T17:14:56;11.00;99.90
20773;DHT22;10546;50.674;4.616;2024-03-22T17:17:23;11.10;99.90
20773;DHT22;10546;50.674;4.616;2024-03-22T17:19:50;11.00;99.90
20773;DHT22;10546;50.674;4.616;2024-03-22T17:22:17;11.10;99.90
20773;DHT22;10546;50.674;4.616;2024-03-22T17:25:10;11.10;99.90
20773;DHT22;10546;50.674;4.616;2024-03-22T17:27:37;11.10;99.90
20773;DHT22;10546;50.674;4.616;2024-03-22T17:30:03;11.00;99.90
20773;DHT22;10546;50.674;4.616;2024-03-22T17:32:29;11.30;99.90
20773;DHT22;10546;50.674;4.616;2024-03-22T17:34:55;11.20;99.90
20773;DHT22;10546;50.674;4.616;2024-03-22T17:37:22;11.20;99.90
20773;DHT22;10546;50.674;4.616;2024-03-22T17:39:50;11.30;99.90
20773;DHT22;10546;50.674;4.616;2024-03-22T17:42:18;11.20;99.90
20773;DHT22;10546;50.674;4.616;2024-03-22T17:44:45;11.20;99.90
20773;DHT22;10546;50.674;4.616;2024-03-22T17:47:17;11.10;99.90
20773;DHT22;10546;50.674;4.616;2024-03-22T17:50:19;10.80;99.90
20773;DHT22;10546;50.674;4.616;2024-03-22T17:53:20;10.80;99.90
20773;DHT22;10546;50.674;4.616;2024-03-22T17:55:47;10.90;99.90
20773;DHT22;10546;50.674;4.616;2024-03-22T17:58:13;11.00;99.90
20773;DHT22;10546;50.674;4.616;2024-03-22T18:00:45;11.20;99.90
20773;DHT22;10546;50.674;4.616;2024-03-22T18:03:11;11.20;99.90
20773;DHT22;10546;50.674;4.616;2024-03-22T18:05:38;11.10;99.90
20773;DHT22;10546;50.674;4.616;2024-03-22T18:08:08;11.10;99.90
20773;DHT22;10546;50.674;4.616;2024-03-22T18:10:38;11.10;99.90
20773;DHT22;10546;50.674;4.616;2024-03-22T18:13:27;11.10;99.90
20773;DHT22;10546;50.674;4.616;2024-03-22T18:16:07;11.10;99.90
20773;DHT22;10546;50.674;4.616;2024-03-22T18:18:45;11.10;99.90
20773;DHT22;10546;50.674;4.616;2024-03-22T18:21:16;11.20;99.90
20773;DHT22;10546;50.674;4.616;2024-03-22T18:23:54;11.20;99.90
20773;DHT22;10546;50.674;4.616;2024-03-22T18:26:38;11.30;99.90
20773;DHT22;10546;50.674;4.616;2024-03-22T18:29:30;11.20;99.90
20773;DHT22;10546;50.674;4.616;2024-03-22T18:32:21;11.00;99.90
20773;DHT22;10546;50.674;4.616;2024-03-22T18:34:57;11.00;99.90
20773;DHT22;10546;50.674;4.616;2024-03-22T18:37:31;11.10;99.90
20773;DHT22;10546;50.674;4.616;2024-03-22T18:40:09;11.10;99.90
20773;DHT22;10546;50.674;4.616;2024-03-22T18:42:44;11.00;99.90
20773;DHT22;10546;50.674;4.616;2024-03-22T18:45:28;11.00;99.90
20773;DHT22;10546;50.674;4.616;2024-03-22T18:48:31;11.00;99.90
20773;DHT22;10546;50.674;4.616;2024-03-22T18:51:05;11.00;99.90
20773;DHT22;10546;50.674;4.616;2024-03-22T18:53:32;11.00;99.90
20773;DHT22;10546;50.674;4.616;2024-03-22T18:56:24;11.00;99.90
20773;DHT22;10546;50.674;4.616;2024-03-22T18:59:23;11.00;99.90
20773;DHT22;10546;50.674;4.616;2024-03-22T19:08:18;11.00;99.90
20773;DHT22;10546;50.674;4.616;2024-03-22T19:10:47;11.00;99.90
20773;DHT22;10546;50.674;4.616;2024-03-22T19:13:14;10.90;99.90
20773;DHT22;10546;50.674;4.616;2024-03-22T19:15:40;10.90;99.90
20773;DHT22;10546;50.674;4.616;2024-03-22T19:18:08;10.60;99.90
20773;DHT22;10546;50.674;4.616;2024-03-22T19:20:36;10.60;99.90
20773;DHT22;10546;50.674;4.616;2024-03-22T19:23:02;10.70;99.90
20773;DHT22;10546;50.674;4.616;2024-03-22T19:25:30;10.70;99.90
20773;DHT22;10546;50.674;4.616;2024-03-22T19:27:56;10.90;99.90
20773;DHT22;10546;50.674;4.616;2024-03-22T19:30:22;10.90;99.90
20773;DHT22;10546;50.674;4.616;2024-03-22T19:32:48;10.80;99.90
20773;DHT22;10546;50.674;4.616;2024-03-22T19:35:14;10.90;99.90
20773;DHT22;10546;50.674;4.616;2024-03-22T19:37:40;10.80;99.90
20773;DHT22;10546;50.674;4.616;2024-03-22T19:40:06;10.70;99.90
20773;DHT22;10546;50.674;4.616;2024-03-22T19:42:32;10.70;99.90
20773;DHT22;10546;50.674;4.616;2024-03-22T19:44:57;10.80;99.90
20773;DHT22;10546;50.674;4.616;2024-03-22T19:47:24;10.80;99.90
20773;DHT22;10546;50.674;4.616;2024-03-22T19:49:50;10.80;99.90
20773;DHT22;10546;50.674;4.616;2024-03-22T19:52:15;10.80;99.90
20773;DHT22;10546;50.674;4.616;2024-03-22T19:54:41;10.90;99.90
20773;DHT22;10546;50.674;4.616;2024-03-22T19:57:07;10.80;99.90
20773;DHT22;10546;50.674;4.616;2024-03-22T19:59:33;10.60;99.90
20773;DHT22;10546;50.674;4.616;2024-03-22T20:01:59;10.50;99.90
20773;DHT22;10546;50.674;4.616;2024-03-22T20:04:24;10.30;99.90
20773;DHT22;10546;50.674;4.616;2024-03-22T20:06:50;10.20;99.90
20773;DHT22;10546;50.674;4.616;2024-03-22T20:09:16;10.10;99.90
20773;DHT22;10546;50.674;4.616;2024-03-22T20:11:43;10.20;99.90
20773;DHT22;10546;50.674;4.616;2024-03-22T20:14:11;10.10;99.90
20773;DHT22;10546;50.674;4.616;2024-03-22T20:16:40;9.90;99.90
20773;DHT22;10546;50.674;4.616;2024-03-22T20:19:06;9.80;99.90
20773;DHT22;10546;50.674;4.616;2024-03-22T20:21:35;9.90;99.90
20773;DHT22;10546;50.674;4.616;2024-03-22T20:24:00;9.80;99.90
20773;DHT22;10546;50.674;4.616;2024-03-22T20:26:28;9.60;99.90
20773;DHT22;10546;50.674;4.616;2024-03-22T20:29:02;9.40;99.90
20773;DHT22;10546;50.674;4.616;2024-03-22T20:31:28;9.40;99.90
20773;DHT22;10546;50.674;4.616;2024-03-22T20:33:53;9.30;99.90
20773;DHT22;10546;50.674;4.616;2024-03-22T20:36:22;9.30;99.90
